Time;durP1;ratioP1;P1;durP2;ratioP2;P2;SDS_P1;SDS_P2;PMS_P1;PMS_P2;Temp;Humidity;BMP_temperature;BMP_pressure;BME280_temperature;BME280_humidity;BME280_pressure;Samples;Min_cycle;Max_cycle;Signal;HPM_P1;HPM_P2
2023/10/31 00:01:24;;;;;;;4.38;1.98;;;;;;;14.86;63.19;99300.31;6206903;28;20065;-75
2023/10/31 00:04:25;;;;;;;5.55;2.00;;;;;;;14.96;62.63;99310.00;6212462;28;20132;-72
2023/10/31 00:07:26;;;;;;;4.55;1.63;;;;;;;14.90;62.74;99296.44;6203823;28;20119;-72
2023/10/31 00:10:29;;;;;;;3.47;1.77;;;;;;;14.83;62.91;99299.78;6203347;28;20065;-73
2023/10/31 00:13:30;;;;;;;5.53;1.83;;;;;;;14.86;62.74;99289.81;6217772;28;20077;-72
2023/10/31 00:16:31;;;;;;;6.18;1.92;;;;;;;14.85;63.10;99296.03;6214119;28;20426;-75
2023/10/31 00:19:32;;;;;;;7.55;2.10;;;;;;;14.84;62.87;99291.75;6220664;28;20053;-75
2023/10/31 00:22:33;;;;;;;3.88;1.73;;;;;;;14.81;62.61;99291.22;6221466;28;20095;-73
2023/10/31 00:25:34;;;;;;;3.92;2.00;;;;;;;14.80;62.75;99289.53;6214262;28;20058;-72
2023/10/31 00:28:34;;;;;;;4.50;1.77;;;;;;;14.83;62.32;99290.09;6205899;28;20057;-76
2023/10/31 00:31:36;;;;;;;2.90;1.80;;;;;;;14.82;61.97;99279.72;6229177;28;20061;-75
2023/10/31 00:34:37;;;;;;;3.87;1.77;;;;;;;14.85;62.20;99268.97;6209807;28;20494;-73
2023/10/31 00:37:39;;;;;;;5.68;2.10;;;;;;;14.78;62.38;99268.66;6210587;28;20153;-75
2023/10/31 00:40:40;;;;;;;9.18;2.30;;;;;;;14.69;62.07;99267.72;6199545;28;20124;-72
2023/10/31 00:43:41;;;;;;;5.47;2.00;;;;;;;14.77;61.73;99263.56;6204744;28;20037;-75
2023/10/31 00:46:43;;;;;;;3.92;1.80;;;;;;;14.85;61.30;99259.28;6245048;28;20051;-72
2023/10/31 00:49:47;;;;;;;3.05;1.65;;;;;;;14.85;61.56;99258.44;6205299;28;20054;-72
2023/10/31 00:52:48;;;;;;;3.00;1.77;;;;;;;14.80;61.79;99258.03;6209737;28;20046;-72
2023/10/31 00:55:49;;;;;;;2.47;1.80;;;;;;;14.83;60.95;99260.38;6211149;28;20125;-75
2023/10/31 00:58:49;;;;;;;5.47;1.75;;;;;;;14.82;61.04;99248.22;6230567;28;20453;-75
2023/10/31 01:01:50;;;;;;;5.80;1.75;;;;;;;14.75;61.61;99241.88;6216964;28;20046;-75
2023/10/31 01:04:51;;;;;;;6.40;1.90;;;;;;;14.70;61.45;99239.66;6299929;27;20550;-75
2023/10/31 01:07:52;;;;;;;3.10;1.42;;;;;;;14.78;60.65;99228.44;6214045;28;20133;-73
2023/10/31 01:10:53;;;;;;;5.40;1.90;;;;;;;14.89;59.56;99236.19;6196047;28;20050;-73
2023/10/31 01:13:54;;;;;;;4.07;1.30;;;;;;;15.02;59.05;99228.00;6213166;28;20401;-73
2023/10/31 01:16:55;;;;;;;4.00;1.50;;;;;;;15.09;59.17;99229.06;6208234;28;20168;-75
2023/10/31 01:19:59;;;;;;;9.40;1.53;;;;;;;15.14;58.70;99211.09;6222172;28;20131;-72
2023/10/31 01:23:02;;;;;;;2.92;1.60;;;;;;;15.31;57.32;99218.22;6243405;28;20366;-75
2023/10/31 01:26:03;;;;;;;9.38;1.40;;;;;;;15.45;56.99;99214.28;6212741;28;20074;-75
2023/10/31 01:29:06;;;;;;;2.55;1.20;;;;;;;15.39;57.56;99214.88;6220366;28;20497;-74
2023/10/31 01:32:10;;;;;;;5.70;1.73;;;;;;;15.55;56.93;99201.09;6220855;28;20136;-72
2023/10/31 01:35:11;;;;;;;1.73;1.33;;;;;;;15.59;56.04;99199.03;6203949;28;20053;-72
2023/10/31 01:38:12;;;;;;;4.43;1.30;;;;;;;15.65;54.88;99198.44;6219460;28;20048;-75
2023/10/31 01:41:13;;;;;;;6.20;1.25;;;;;;;15.77;55.69;99201.69;6219687;28;20390;-72
2023/10/31 01:44:14;;;;;;;3.67;1.35;;;;;;;15.76;55.56;99190.34;6201756;28;20057;-75
2023/10/31 01:47:17;;;;;;;2.97;1.25;;;;;;;15.66;55.18;99193.00;6210420;28;20554;-75
2023/10/31 01:50:19;;;;;;;2.33;1.27;;;;;;;15.86;54.81;99188.50;6221805;28;20589;-72
2023/10/31 01:53:21;;;;;;;5.80;1.50;;;;;;;15.75;54.87;99178.19;6215645;28;20167;-75
2023/10/31 01:56:23;;;;;;;2.47;1.20;;;;;;;15.81;55.20;99169.69;6196061;28;20054;-73
2023/10/31 01:59:25;;;;;;;1.80;1.38;;;;;;;15.79;54.54;99176.06;6218515;28;20830;-72
2023/10/31 02:02:27;;;;;;;3.40;1.40;;;;;;;15.80;54.32;99165.41;6226466;28;20385;-75
2023/10/31 02:05:28;;;;;;;2.08;1.10;;;;;;;15.68;54.81;99162.13;6219896;28;20050;-72
2023/10/31 02:08:29;;;;;;;3.38;1.30;;;;;;;15.79;53.45;99155.84;6333952;28;20054;-75
2023/10/31 02:11:32;;;;;;;3.20;1.27;;;;;;;15.82;54.27;99158.19;6238539;28;20080;-75
2023/10/31 02:14:34;;;;;;;3.88;1.10;;;;;;;15.81;53.67;99153.91;6210707;28;20451;-74
2023/10/31 02:17:37;;;;;;;5.40;1.25;;;;;;;15.83;53.03;99135.34;6217937;28;20058;-73
2023/10/31 02:20:37;;;;;;;3.50;1.30;;;;;;;15.93;52.92;99135.28;6219028;28;20081;-73
2023/10/31 02:23:38;;;;;;;6.10;1.10;;;;;;;15.87;53.05;99131.44;6218367;28;20045;-72
2023/10/31 02:26:42;;;;;;;6.68;1.40;;;;;;;15.89;53.12;99140.00;6218044;28;20498;-72
2023/10/31 02:29:45;;;;;;;6.00;1.42;;;;;;;15.88;53.07;99133.94;6220290;28;20397;-75
2023/10/31 02:32:48;;;;;;;2.08;1.10;;;;;;;15.87;52.89;99131.44;6219654;28;20046;-73
2023/10/31 02:35:49;;;;;;;1.33;0.90;;;;;;;15.85;52.65;99117.63;6204582;28;20054;-75
2023/10/31 02:38:50;;;;;;;2.35;1.00;;;;;;;16.01;52.41;99117.75;6285926;28;20063;-73
2023/10/31 02:41:51;;;;;;;2.15;1.10;;;;;;;15.99;52.81;99124.16;6240560;28;20180;-72
2023/10/31 02:44:53;;;;;;;2.00;1.10;;;;;;;15.97;52.32;99126.94;6215623;28;20530;-73
2023/10/31 02:47:53;;;;;;;1.90;0.90;;;;;;;15.74;53.19;99129.19;6215461;28;20055;-73
2023/10/31 02:50:54;;;;;;;1.33;0.82;;;;;;;15.93;53.02;99130.03;6219382;28;20504;-73
2023/10/31 02:53:55;;;;;;;2.40;1.10;;;;;;;15.80;52.75;99128.59;6208843;28;20046;-72
2023/10/31 02:56:58;;;;;;;3.97;1.23;;;;;;;15.86;53.20;99128.00;6194592;28;20061;-75
2023/10/31 02:59:58;;;;;;;;;;;;;;;15.83;53.76;99123.03;6216924;28;20053;-74
2023/10/31 03:02:59;;;;;;;2.35;0.93;;;;;;;15.75;53.59;99117.72;6207247;28;20457;-75
2023/10/31 03:06:00;;;;;;;2.67;0.93;;;;;;;15.72;53.68;99123.25;6214212;28;20079;-72
2023/10/31 03:09:01;;;;;;;1.08;0.70;;;;;;;15.70;53.72;99127.81;6221953;28;20050;-72
2023/10/31 03:12:02;;;;;;;1.02;0.77;;;;;;;15.65;53.67;99125.63;6299196;28;20100;-73
2023/10/31 03:15:04;;;;;;;2.60;1.20;;;;;;;15.58;54.22;99113.22;6197594;28;20157;-73
2023/10/31 03:18:04;;;;;;;2.47;1.05;;;;;;;15.63;53.94;99109.16;6271699;28;20051;-75
2023/10/31 03:21:05;;;;;;;3.75;1.00;;;;;;;15.56;54.24;99112.53;6276029;28;20478;-75
2023/10/31 03:24:06;;;;;;;3.53;1.05;;;;;;;15.65;53.80;99101.97;6213968;28;20038;-73
2023/10/31 03:27:07;;;;;;;2.45;0.90;;;;;;;15.66;54.33;99108.84;6197110;28;20061;-72
2023/10/31 03:30:09;;;;;;;0.98;0.70;;;;;;;15.69;53.76;99095.44;6205124;28;20061;-75
2023/10/31 03:33:12;;;;;;;3.17;1.10;;;;;;;15.78;53.20;99104.25;6213920;28;20520;-73
2023/10/31 03:36:15;;;;;;;2.22;0.93;;;;;;;15.84;52.58;99100.19;6207638;28;20046;-75
2023/10/31 03:39:17;;;;;;;1.92;0.90;;;;;;;16.01;52.50;99101.16;6207279;28;20052;-72
2023/10/31 03:42:18;;;;;;;1.70;1.00;;;;;;;15.99;53.26;99108.38;6236086;28;20038;-72
2023/10/31 03:45:23;;;;;;;1.17;0.80;;;;;;;15.93;52.74;99120.31;6203862;28;20045;-73
2023/10/31 03:48:24;;;;;;;4.43;1.00;;;;;;;16.00;53.41;99115.28;6212132;28;20058;-72
2023/10/31 03:51:25;;;;;;;1.63;0.63;;;;;;;16.14;53.59;99106.03;6200450;28;20050;-72
2023/10/31 03:54:26;;;;;;;3.55;0.80;;;;;;;16.08;53.64;99116.19;6236192;28;20107;-75
2023/10/31 03:57:27;;;;;;;1.80;1.10;;;;;;;16.06;54.32;99114.66;6228237;28;20058;-75
2023/10/31 04:00:28;;;;;;;6.18;0.90;;;;;;;16.09;54.65;99117.84;6226854;28;20694;-75
2023/10/31 04:03:31;;;;;;;1.83;0.98;;;;;;;16.04;54.79;99119.25;6297567;28;20061;-72
2023/10/31 04:06:32;;;;;;;1.35;0.95;;;;;;;16.05;55.04;99110.41;6263921;28;20049;-73
2023/10/31 04:09:33;;;;;;;2.53;0.90;;;;;;;15.98;55.16;99107.56;6232490;28;20127;-73
2023/10/31 04:12:35;;;;;;;0.88;0.60;;;;;;;16.03;55.54;99112.34;6193062;28;20068;-74
2023/10/31 04:15:35;;;;;;;3.90;1.02;;;;;;;16.00;54.83;99104.75;6203196;28;20141;-75
2023/10/31 04:18:37;;;;;;;0.90;0.73;;;;;;;16.09;55.18;99102.03;6255204;28;20061;-75
2023/10/31 04:21:38;;;;;;;2.25;0.93;;;;;;;16.16;54.51;99098.81;6216393;28;20050;-75
2023/10/31 04:24:41;;;;;;;1.27;0.90;;;;;;;16.38;54.74;99087.78;6193323;28;20460;-72
2023/10/31 04:27:42;;;;;;;2.08;0.85;;;;;;;16.34;54.35;99091.72;6209906;28;20061;-71
2023/10/31 04:30:46;;;;;;;2.95;1.00;;;;;;;16.42;54.09;99094.38;6246837;28;20054;-74
2023/10/31 04:33:46;;;;;;;1.88;1.17;;;;;;;16.51;54.13;99100.53;6198081;28;20136;-75
2023/10/31 04:36:49;;;;;;;4.25;0.85;;;;;;;16.51;54.24;99109.28;6202050;28;20118;-74
2023/10/31 04:39:50;;;;;;;3.97;1.20;;;;;;;16.43;55.08;99084.69;6194994;28;20059;-75
2023/10/31 04:42:51;;;;;;;2.70;1.08;;;;;;;16.31;55.45;99077.06;6210405;28;20401;-74
2023/10/31 04:45:52;;;;;;;5.05;1.45;;;;;;;16.40;54.48;99070.03;6211692;28;20065;-72
2023/10/31 04:48:53;;;;;;;2.80;1.20;;;;;;;16.49;54.81;99061.22;6209134;28;20058;-71
2023/10/31 04:51:56;;;;;;;2.17;0.93;;;;;;;16.43;54.59;99058.34;6214395;28;20107;-74
2023/10/31 04:54:57;;;;;;;1.00;0.80;;;;;;;16.43;54.48;99053.09;6207676;28;20133;-77
2023/10/31 04:57:58;;;;;;;2.70;0.90;;;;;;;16.43;54.26;99051.31;6212032;28;20050;-73
2023/10/31 05:01:00;;;;;;;5.45;1.10;;;;;;;16.58;53.41;99062.06;6259791;28;20074;-73
2023/10/31 05:04:01;;;;;;;1.85;1.08;;;;;;;16.66;52.86;99091.09;6349459;28;20044;-73
2023/10/31 05:07:02;;;;;;;8.55;1.15;;;;;;;16.83;52.80;99121.00;6272463;28;20050;-73
2023/10/31 05:10:03;;;;;;;2.42;0.90;;;;;;;16.84;53.16;99122.69;6216582;28;20046;-73
2023/10/31 05:13:04;;;;;;;1.52;0.80;;;;;;;16.82;53.35;99129.91;6342816;28;20142;-76
2023/10/31 05:16:06;;;;;;;1.88;0.88;;;;;;;16.85;54.07;99126.13;6348937;28;20047;-77
2023/10/31 05:19:09;;;;;;;1.38;0.85;;;;;;;16.82;54.03;99135.19;6349416;28;20512;-73
2023/10/31 05:22:10;;;;;;;2.83;1.15;;;;;;;16.82;54.86;99153.63;6260749;28;20055;-76
2023/10/31 05:25:11;;;;;;;5.75;0.95;;;;;;;16.87;55.88;99147.88;6220373;28;20098;-76
2023/10/31 05:28:12;;;;;;;2.90;1.25;;;;;;;16.65;56.80;99147.38;6304617;28;20051;-76
2023/10/31 05:31:17;;;;;;;2.38;1.10;;;;;;;16.57;57.44;99144.69;6298631;28;20134;-72
2023/10/31 05:34:20;;;;;;;3.40;0.95;;;;;;;16.46;57.22;99137.88;6220116;28;20439;-73
2023/10/31 05:37:21;;;;;;;3.25;0.93;;;;;;;16.46;57.71;99152.84;6228011;28;20054;-73
2023/10/31 05:40:25;;;;;;;1.88;0.98;;;;;;;16.34;57.48;99140.91;6220338;28;20402;-76
2023/10/31 05:43:26;;;;;;;2.15;1.35;;;;;;;16.46;57.49;99134.41;6321972;27;20038;-76
2023/10/31 05:46:27;;;;;;;3.63;1.10;;;;;;;16.48;57.56;99130.63;6220220;28;20370;-73
2023/10/31 05:49:28;;;;;;;5.53;1.45;;;;;;;16.49;57.83;99142.00;6226033;28;20132;-72
2023/10/31 05:52:29;;;;;;;5.75;1.20;;;;;;;16.42;57.77;99151.50;6307662;28;20135;-76
2023/10/31 05:55:30;;;;;;;2.80;1.20;;;;;;;16.39;58.38;99163.16;6218654;28;20106;-76
2023/10/31 05:58:31;;;;;;;1.30;0.85;;;;;;;16.45;57.94;99159.06;6213495;28;20054;-73
2023/10/31 06:01:32;;;;;;;2.83;1.30;;;;;;;16.40;57.79;99149.00;6289279;28;20055;-72
2023/10/31 06:04:33;;;;;;;5.03;1.05;;;;;;;16.50;57.79;99141.84;6347614;28;20040;-73
2023/10/31 06:07:34;;;;;;;4.32;1.17;;;;;;;16.46;57.44;99143.13;6347683;28;20586;-76
2023/10/31 06:10:35;;;;;;;2.85;0.93;;;;;;;16.50;57.73;99128.69;6339520;28;20047;-73
2023/10/31 06:13:36;;;;;;;5.32;1.48;;;;;;;16.54;58.16;99115.22;6347640;28;20048;-73
2023/10/31 06:16:41;;;;;;;2.40;1.05;;;;;;;16.45;58.49;99119.56;6254934;28;20069;-74
2023/10/31 06:19:45;;;;;;;3.25;1.05;;;;;;;16.50;58.93;99110.25;6231285;28;20047;-76
2023/10/31 06:22:48;;;;;;;5.00;1.38;;;;;;;16.48;57.96;99114.84;6346769;28;20044;-75
2023/10/31 06:25:49;;;;;;;9.32;1.35;;;;;;;16.57;57.95;99118.34;6240627;28;20461;-73
2023/10/31 06:28:50;;;;;;;4.93;1.40;;;;;;;16.47;57.77;99118.47;6221648;28;20056;-73
2023/10/31 06:31:51;;;;;;;3.00;1.30;;;;;;;16.54;57.67;99107.31;6218269;28;20050;-75
2023/10/31 06:34:52;;;;;;;4.95;1.30;;;;;;;16.61;57.64;99103.88;6267585;28;20510;-76
2023/10/31 06:37:59;;;;;;;2.22;1.15;;;;;;;16.68;57.78;99094.41;6225092;28;20065;-76
2023/10/31 06:41:00;;;;;;;4.22;0.90;;;;;;;16.59;56.23;99091.88;6216923;28;20079;-75
2023/10/31 06:44:01;;;;;;;3.70;1.30;;;;;;;16.71;56.10;99078.25;6331350;28;20059;-72
2023/10/31 06:47:02;;;;;;;2.55;1.33;;;;;;;16.86;55.29;99083.81;6200378;28;20046;-73
2023/10/31 06:50:03;;;;;;;2.67;1.10;;;;;;;17.01;55.48;99083.22;6277518;28;20132;-76
2023/10/31 06:53:04;;;;;;;3.63;1.40;;;;;;;16.98;55.03;99073.81;6222826;28;20124;-76
2023/10/31 06:56:05;;;;;;;2.85;1.20;;;;;;;16.97;54.90;99068.72;6304739;28;20426;-74
2023/10/31 06:59:06;;;;;;;1.90;1.05;;;;;;;17.01;54.37;99070.88;6271057;28;20410;-76
2023/10/31 07:02:08;;;;;;;2.27;1.20;;;;;;;17.05;54.33;99060.84;6219771;28;20050;-73
2023/10/31 07:05:10;;;;;;;5.40;1.27;;;;;;;17.14;54.47;99072.25;6299761;28;20093;-76
2023/10/31 07:08:11;;;;;;;2.17;0.93;;;;;;;17.15;53.65;99081.78;6346841;28;20059;-73
2023/10/31 07:11:14;;;;;;;2.03;1.20;;;;;;;17.12;52.33;99085.56;6345138;28;20051;-76
2023/10/31 07:14:15;;;;;;;4.50;1.05;;;;;;;17.31;53.21;99082.66;6249542;28;20042;-73
2023/10/31 07:17:16;;;;;;;1.23;0.85;;;;;;;17.35;52.93;99082.34;6284144;28;20463;-76
2023/10/31 07:20:17;;;;;;;3.17;1.08;;;;;;;17.43;53.00;99075.28;6218796;28;20053;-76
2023/10/31 07:23:17;;;;;;;1.75;0.85;;;;;;;17.34;52.85;99105.25;6317435;28;20487;-76
2023/10/31 07:26:18;;;;;;;3.17;1.20;;;;;;;17.46;53.66;99108.41;6346006;28;20050;-73
2023/10/31 07:29:19;;;;;;;11.38;1.30;;;;;;;17.49;53.73;99105.47;6235503;28;20054;-73
2023/10/31 07:32:20;;;;;;;3.38;1.38;;;;;;;17.66;54.09;99091.31;6216774;28;20053;-73
2023/10/31 07:35:21;;;;;;;2.22;0.90;;;;;;;17.71;53.59;99080.28;6204949;28;20134;-76
2023/10/31 07:38:22;;;;;;;3.65;1.13;;;;;;;17.72;53.63;99060.81;6252752;28;20062;-73
2023/10/31 07:41:23;;;;;;;4.13;1.38;;;;;;;17.78;53.47;99072.53;6251870;28;20394;-73
2023/10/31 07:44:24;;;;;;;2.35;1.13;;;;;;;17.72;53.20;99071.38;6217727;28;20482;-73
2023/10/31 07:47:27;;;;;;;1.08;0.98;;;;;;;17.75;53.38;99059.66;6214843;28;20132;-73
2023/10/31 07:50:29;;;;;;;3.83;1.10;;;;;;;17.89;53.13;99083.63;6250948;28;20052;-75
2023/10/31 07:53:30;;;;;;;3.13;1.23;;;;;;;17.97;52.64;99093.34;6303337;28;20038;-73
2023/10/31 07:56:32;;;;;;;12.48;1.65;;;;;;;18.01;52.91;99078.81;6217432;28;20076;-76
2023/10/31 07:59:34;;;;;;;2.75;1.00;;;;;;;18.20;52.99;99087.41;6296100;28;20051;-73
2023/10/31 08:02:35;;;;;;;2.33;1.08;;;;;;;18.13;52.23;99079.31;6209412;28;20042;-72
2023/10/31 08:05:36;;;;;;;1.58;1.05;;;;;;;18.32;52.84;99065.78;6213366;28;20057;-76
2023/10/31 08:08:37;;;;;;;1.95;0.85;;;;;;;18.47;52.16;99071.22;6198649;28;20440;-76
2023/10/31 08:11:38;;;;;;;10.10;1.40;;;;;;;18.56;51.72;99071.19;6214794;28;20545;-72
2023/10/31 08:14:39;;;;;;;2.13;1.17;;;;;;;18.59;51.62;99076.94;6206612;28;20392;-77
2023/10/31 08:17:42;;;;;;;2.95;1.42;;;;;;;18.64;51.30;99081.75;6224149;28;20050;-72
2023/10/31 08:20:46;;;;;;;3.10;1.30;;;;;;;18.50;51.20;99083.25;6230733;28;20099;-76
2023/10/31 08:23:47;;;;;;;5.65;1.27;;;;;;;18.58;51.48;99090.34;6195133;28;20049;-76
2023/10/31 08:26:48;;;;;;;2.08;1.13;;;;;;;18.52;51.17;99090.00;6201569;28;20158;-75
2023/10/31 08:29:48;;;;;;;2.47;1.10;;;;;;;18.50;52.14;99078.78;6204046;28;20050;-76
2023/10/31 08:32:49;;;;;;;3.03;1.20;;;;;;;18.66;51.46;99077.94;6216847;28;21364;-76
2023/10/31 08:35:50;;;;;;;3.58;1.30;;;;;;;18.79;52.20;99073.97;6249534;28;20056;-76
2023/10/31 08:38:54;;;;;;;4.07;1.17;;;;;;;18.64;52.59;99079.09;6257609;28;20395;-75
2023/10/31 08:41:57;;;;;;;3.58;0.95;;;;;;;18.58;52.49;99075.31;6327545;28;20049;-72
2023/10/31 08:45:00;;;;;;;6.25;1.20;;;;;;;18.67;52.66;99070.81;6225305;28;20051;-75
2023/10/31 08:48:00;;;;;;;2.70;1.58;;;;;;;18.73;54.06;99078.06;6204412;28;20070;-76
2023/10/31 08:51:02;;;;;;;3.40;1.53;;;;;;;18.61;54.44;99067.03;6204294;28;20110;-76
2023/10/31 08:54:03;;;;;;;5.22;1.40;;;;;;;18.59;54.31;99066.38;6210750;28;20050;-77
2023/10/31 08:57:03;;;;;;;3.97;1.10;;;;;;;18.71;54.14;99049.16;6195330;28;20054;-76
2023/10/31 09:00:05;;;;;;;3.20;1.47;;;;;;;18.81;53.74;99049.00;6213498;28;20054;-73
2023/10/31 09:03:07;;;;;;;6.55;1.70;;;;;;;18.87;54.08;99058.06;6211777;28;20046;-74
2023/10/31 09:06:08;;;;;;;2.58;0.90;;;;;;;18.85;54.00;99049.50;6233992;28;20051;-73
2023/10/31 09:09:10;;;;;;;1.77;1.07;;;;;;;19.01;53.86;99043.31;6243103;28;20408;-73
2023/10/31 09:12:11;;;;;;;6.90;1.63;;;;;;;18.86;54.00;99036.13;6218861;28;20103;-76
2023/10/31 09:15:13;;;;;;;2.45;1.13;;;;;;;18.86;53.72;99028.19;6251789;28;20061;-76
2023/10/31 09:18:13;;;;;;;4.85;1.40;;;;;;;18.86;53.76;99020.25;6237168;28;20124;-76
2023/10/31 09:21:14;;;;;;;3.45;1.30;;;;;;;18.91;53.47;99019.72;6245857;28;20490;-76
2023/10/31 09:24:15;;;;;;;2.17;1.40;;;;;;;18.98;53.33;99010.09;6221419;28;20418;-73
2023/10/31 09:27:18;;;;;;;2.00;1.33;;;;;;;19.11;53.58;99009.56;6262527;28;20049;-76
2023/10/31 09:30:19;;;;;;;8.50;1.35;;;;;;;19.17;52.93;99010.66;6280687;28;20452;-76
2023/10/31 09:33:20;;;;;;;1.80;1.08;;;;;;;19.39;52.55;99009.88;6347233;28;20407;-76
2023/10/31 09:36:21;;;;;;;3.87;1.40;;;;;;;19.40;51.98;99006.22;6347000;28;20047;-76
2023/10/31 09:39:22;;;;;;;2.13;1.50;;;;;;;19.41;51.09;98999.94;6347174;28;20058;-74
2023/10/31 09:42:24;;;;;;;8.27;1.75;;;;;;;19.62;50.42;99001.94;6347288;28;20048;-76
2023/10/31 09:45:27;;;;;;;5.40;1.45;;;;;;;19.70;49.00;98999.25;6346790;28;20054;-76
2023/10/31 09:48:28;;;;;;;4.18;1.60;;;;;;;19.79;48.67;98985.94;6346607;28;20051;-73
2023/10/31 09:51:32;;;;;;;1.77;1.50;;;;;;;19.76;48.24;98992.41;6346672;28;20047;-76
2023/10/31 09:54:37;;;;;;;4.72;1.90;;;;;;;19.79;49.15;98986.78;6346538;28;20373;-76
2023/10/31 09:57:40;;;;;;;4.15;1.77;;;;;;;19.70;48.30;98967.47;6347714;28;20108;-76
2023/10/31 10:00:41;;;;;;;3.22;1.67;;;;;;;19.90;49.30;98965.16;6348044;27;20051;-76
2023/10/31 10:03:42;;;;;;;3.28;1.20;;;;;;;19.87;47.90;98954.94;6347655;28;20059;-75
2023/10/31 10:07:01;;;;;;;5.60;1.30;;;;;;;19.96;48.01;98955.69;6346640;28;20560;-73
2023/10/31 10:10:02;;;;;;;3.00;1.40;;;;;;;19.91;47.64;98942.16;6346294;28;20094;-73
2023/10/31 10:13:04;;;;;;;2.78;1.38;;;;;;;20.07;47.82;98927.94;6346077;28;20078;-75
2023/10/31 10:16:05;;;;;;;4.22;1.55;;;;;;;20.06;48.28;98929.75;6347333;28;20500;-72
2023/10/31 10:19:17;;;;;;;5.95;1.60;;;;;;;20.03;48.31;98953.94;6345986;28;20425;-72
2023/10/31 10:22:20;;;;;;;4.38;1.38;;;;;;;20.09;47.66;98953.22;6346107;28;20051;-75
2023/10/31 10:25:21;;;;;;;3.08;1.27;;;;;;;20.18;47.29;98939.88;6347558;28;20051;-73
2023/10/31 10:28:24;;;;;;;8.83;1.37;;;;;;;20.22;47.54;98935.88;6346000;28;20097;-73
2023/10/31 10:31:25;;;;;;;5.57;1.27;;;;;;;20.24;48.28;98934.69;6346835;28;20411;-73
2023/10/31 10:34:26;;;;;;;4.63;1.57;;;;;;;20.29;48.62;98926.19;6347025;28;20108;-76
2023/10/31 10:37:28;;;;;;;3.13;1.48;;;;;;;20.43;48.49;98921.91;6346693;28;20449;-75
2023/10/31 10:40:31;;;;;;;3.65;1.65;;;;;;;20.41;48.43;98914.13;6346687;28;20057;-75
2023/10/31 10:43:36;;;;;;;4.55;1.55;;;;;;;20.41;48.95;98903.53;6346882;28;20047;-75
2023/10/31 10:46:39;;;;;;;4.10;1.50;;;;;;;20.54;48.95;98898.38;6346974;28;20048;-75
2023/10/31 10:49:42;;;;;;;6.03;1.60;;;;;;;20.75;48.73;98880.09;6346676;28;20135;-76
2023/10/31 10:53:07;;;;;;;4.32;1.35;;;;;;;21.19;47.07;98881.72;6345504;28;20093;-74
2023/10/31 10:56:16;;;;;;;4.15;1.80;;;;;;;21.48;48.45;98886.09;6346025;28;20047;-75
2023/10/31 10:59:25;;;;;;;2.08;1.27;;;;;;;21.23;47.78;98870.56;6345324;28;20510;-76
2023/10/31 11:02:28;;;;;;;8.25;1.50;;;;;;;20.90;48.76;98873.75;6346826;28;20044;-75
2023/10/31 11:05:34;;;;;;;2.53;1.27;;;;;;;20.76;48.16;98874.63;6345294;28;20144;-73
2023/10/31 11:08:37;;;;;;;4.18;1.52;;;;;;;20.71;48.42;98871.69;6346243;28;20058;-73
2023/10/31 11:11:39;;;;;;;3.85;1.70;;;;;;;20.80;48.83;98867.13;6346333;27;20054;-73
2023/10/31 11:14:41;;;;;;;2.28;1.10;;;;;;;20.91;48.56;98848.03;6344754;28;20047;-73
2023/10/31 11:17:44;;;;;;;4.55;1.42;;;;;;;20.99;47.95;98839.16;6346215;27;20058;-73
2023/10/31 11:20:45;;;;;;;5.30;1.50;;;;;;;21.27;48.46;98844.47;6344910;28;20048;-72
2023/10/31 11:23:57;;;;;;;3.78;1.35;;;;;;;21.24;47.85;98836.91;6344798;28;20043;-73
2023/10/31 11:27:04;;;;;;;4.30;1.50;;;;;;;21.28;47.17;98825.72;6345771;28;20134;-74
2023/10/31 11:30:07;;;;;;;2.90;1.30;;;;;;;21.58;47.09;98819.41;6345704;27;20059;-73
2023/10/31 11:33:15;;;;;;;6.20;1.23;;;;;;;22.17;45.36;98810.09;6344342;28;20043;-73
2023/10/31 11:36:19;;;;;;;2.10;1.20;;;;;;;22.33;45.81;98805.28;6344201;28;20104;-73
2023/10/31 11:39:30;;;;;;;7.22;1.63;;;;;;;22.38;44.36;98804.69;6344107;28;20419;-75
2023/10/31 11:42:33;;;;;;;6.95;2.15;;;;;;;22.25;44.20;98809.97;6344598;28;20047;-76
2023/10/31 11:45:37;;;;;;;2.30;1.17;;;;;;;22.05;44.54;98796.56;6345320;28;20434;-73
2023/10/31 11:48:51;;;;;;;4.15;1.73;;;;;;;21.90;44.77;98802.03;6345191;28;20079;-75
2023/10/31 11:51:55;;;;;;;2.22;1.33;;;;;;;21.66;44.64;98808.63;6345406;28;20058;-75
2023/10/31 11:54:56;;;;;;;6.03;1.63;;;;;;;21.62;44.09;98792.31;6345048;28;20495;-75
2023/10/31 11:57:57;;;;;;;3.97;1.80;;;;;;;21.61;44.76;98790.66;6345239;28;20047;-75
2023/10/31 12:01:05;;;;;;;3.07;1.30;;;;;;;21.47;43.54;98775.66;6344193;28;20051;-76
2023/10/31 12:04:06;;;;;;;5.97;1.65;;;;;;;21.55;45.55;98759.59;6345253;28;20052;-74
2023/10/31 12:07:08;;;;;;;3.97;1.40;;;;;;;21.63;44.23;98755.94;6330645;28;20040;-73
2023/10/31 12:10:09;;;;;;;;;;;;;;;21.63;44.44;98743.50;6263894;28;20078;-75
2023/10/31 12:13:12;;;;;;;3.88;1.40;;;;;;;21.46;43.93;98732.38;6277609;28;19967;-75
2023/10/31 12:16:13;;;;;;;2.67;1.50;;;;;;;21.60;44.86;98724.47;6343421;28;20509;-73
2023/10/31 12:19:15;;;;;;;3.33;1.30;;;;;;;21.55;44.00;98718.97;6236243;28;20167;-73
2023/10/31 12:22:16;;;;;;;4.63;1.58;;;;;;;21.45;44.37;98712.16;6227912;28;20479;-76
2023/10/31 12:25:20;;;;;;;4.10;1.40;;;;;;;21.44;44.04;98704.44;6256555;28;20487;-73
2023/10/31 12:28:22;;;;;;;8.35;1.60;;;;;;;21.37;44.55;98692.91;6324489;28;20058;-74
2023/10/31 12:31:23;;;;;;;3.53;1.52;;;;;;;21.47;43.70;98686.25;6276591;28;20046;-75
2023/10/31 12:34:25;;;;;;;15.50;1.47;;;;;;;21.52;43.65;98680.38;6230456;28;20405;-75
2023/10/31 12:37:28;;;;;;;;;;;;;;;21.47;43.97;98661.56;6225468;28;20079;-76
2023/10/31 12:40:29;;;;;;;5.10;1.35;;;;;;;21.46;43.69;98666.06;6224428;28;19921;-75
2023/10/31 12:43:30;;;;;;;5.85;2.00;;;;;;;21.40;43.54;98650.09;6222400;28;20046;-75
2023/10/31 12:46:32;;;;;;;5.07;1.60;;;;;;;21.54;43.87;98654.47;6216708;28;20054;-75
2023/10/31 12:49:33;;;;;;;3.30;1.77;;;;;;;21.61;43.58;98647.31;6261282;28;20057;-75
2023/10/31 12:52:53;;;;;;;3.90;1.30;;;;;;;21.60;42.92;98642.22;6224964;28;20100;-75
2023/10/31 12:55:56;;;;;;;3.90;1.30;;;;;;;21.71;43.07;98639.00;6223011;28;20058;-73
2023/10/31 12:58:58;;;;;;;2.80;1.02;;;;;;;21.66;43.69;98646.72;6223560;28;20440;-72
2023/10/31 13:02:00;;;;;;;9.25;1.50;;;;;;;21.60;43.91;98640.41;6220629;28;20082;-73
2023/10/31 13:05:15;;;;;;;4.75;1.75;;;;;;;21.52;43.71;98636.06;6334938;28;20054;-72
2023/10/31 13:08:17;;;;;;;9.77;1.90;;;;;;;21.48;43.83;98631.38;6343370;28;20097;-75
2023/10/31 13:11:25;;;;;;;10.47;1.80;;;;;;;21.52;43.60;98619.34;6287129;28;20494;-75
2023/10/31 13:14:26;;;;;;;3.38;1.35;;;;;;;21.57;44.14;98629.34;6216807;28;20344;-75
2023/10/31 13:17:28;;;;;;;9.07;1.90;;;;;;;21.67;43.83;98616.53;6224117;28;20387;-73
2023/10/31 13:20:31;;;;;;;9.13;2.15;;;;;;;21.53;43.70;98618.31;6223105;28;20049;-72
2023/10/31 13:23:38;;;;;;;8.32;1.45;;;;;;;21.60;43.87;98611.22;6271308;28;20562;-73
2023/10/31 13:26:41;;;;;;;2.85;1.30;;;;;;;21.71;44.32;98609.81;6231277;28;20382;-75
2023/10/31 13:29:42;;;;;;;4.93;1.50;;;;;;;21.57;43.84;98608.94;6220416;28;20053;-75
2023/10/31 13:32:44;;;;;;;6.40;1.42;;;;;;;21.44;44.19;98600.94;6219758;28;20102;-73
2023/10/31 13:35:47;;;;;;;3.25;1.63;;;;;;;21.59;44.73;98590.97;6285586;28;20492;-75
2023/10/31 13:38:48;;;;;;;4.68;1.55;;;;;;;21.46;44.52;98593.59;6290651;28;20053;-75
2023/10/31 13:41:50;;;;;;;4.50;1.60;;;;;;;21.46;45.42;98594.41;6305102;28;20079;-75
2023/10/31 13:44:51;;;;;;;3.80;1.55;;;;;;;21.47;44.66;98576.66;6286971;27;20096;-73
2023/10/31 13:47:57;;;;;;;5.93;1.87;;;;;;;21.30;44.87;98576.16;6219440;28;20690;-73
2023/10/31 13:50:58;;;;;;;3.75;1.67;;;;;;;21.25;45.16;98573.28;6224948;28;20058;-73
2023/10/31 13:53:59;;;;;;;7.10;1.70;;;;;;;21.20;45.09;98563.28;6219544;28;20535;-72
2023/10/31 13:57:01;;;;;;;5.90;1.70;;;;;;;21.20;45.18;98565.91;6218626;28;20275;-72
2023/10/31 14:00:02;;;;;;;6.60;1.63;;;;;;;21.15;45.73;98560.41;6326683;28;20239;-75
2023/10/31 14:03:03;;;;;;;4.95;1.60;;;;;;;21.11;45.92;98567.94;6339320;28;20438;-75
2023/10/31 14:06:07;;;;;;;5.97;1.70;;;;;;;21.03;46.18;98569.94;6346556;28;20096;-75
2023/10/31 14:09:15;;;;;;;14.38;7.45;;;;;;;20.95;46.80;98588.66;6284503;28;20049;-75
2023/10/31 14:12:28;;;;;;;11.48;2.47;;;;;;;20.88;46.91;98586.00;6225909;28;20050;-75
2023/10/31 14:18:52;;;;;;;13.25;1.70;;;;;;;19.87;58.33;98594.97;6315062;28;20080;-73
2023/10/31 14:21:57;;;;;;;5.03;2.20;;;;;;;19.25;59.05;98613.97;6344482;28;20054;-72